SKSMSKCG

Guest
Details From SKSM - SIMON BOLIVAR
To SKCG - RAFAEL NUNEZ
Flight Number -
Tags generated
Created
Modified
Stats Distance 86 nm / 159 km
Max Altitude 9,400 ft / 2,865 m
Waypoints 3
Social Downloads 0
Likes 0
Share VATSIM

Download

Looking for another format? Having issues loading an existing format? Contact us
Advertisement - Login to hide

Notes

Basic altitude profile: - Ascent Rate: 1000ft/min - Ascent Speed: 155kts - Cruise Altitude: 90ft - Cruise Speed: 185kts - Descent Rate: 100ft/min - Descent Speed: 120kts Options: - Use NATs: yes - Use PACOTS: yes - Use low airways: yes - Use high airways: no

Route

SKSM BAQ SKCG

ID Type Via Altitude Latitude Longitude Leg Dist Tot Dist Heading (true) Name
O SKSM APT - 0 ft / 0 m 11.11965˚ -74.23065˚ - 0 nm - SIMON BOLIVAR
BAQ VOR - 9,400 ft / 2,865 m 10.79667˚ -74.86028˚ 41 nm 41 nm 242° / 242° BARRANQUILLA VOR-DME
O SKCG APT - 0 ft / 0 m 10.44238˚ -75.51296˚ 44 nm 85 nm 241° / 241° RAFAEL NUNEZ

Altitude Profile

Advertisement - Login to hide

SKSM

Details ICAO SKSM (SMR)
Name SIMON BOLIVAR
Region Colombia
Timezone Unknown (UTC+0.0)
Stats Elevation 22 ft / 7 m (AMSL)
Location 11.119649° -74.230646°
Runways 1
Magnetic Variation 8.101° W

METAR

SKSM 151100Z 00000KT 9999 FEW020 23/20 A2980

Decode

TAF

Not found

Departure Runways

ID Width Length Bearing (true) Bearing (mag) Surface Threshold Offset Overrun Length
01 98 ft / 30 m 5,618 ft / 1,712 m 358.67° 6.77° Asphalt 0 ft / 0 m 0 ft / 0 m
19 98 ft / 30 m 5,618 ft / 1,712 m 178.67° 186.77° Asphalt 0 ft / 0 m 0 ft / 0 m

SKCG

Details ICAO SKCG (CTG)
Name RAFAEL NUNEZ
Region Colombia
Timezone America/Bogota (UTC-5.0)
Stats Elevation 4 ft / 1 m (AMSL)
Location 10.442379° -75.512961°
Runways 1
Magnetic Variation 7.205° W

METAR

SKCG 151200Z VRB02KT CAVOK 25/22 A2982

Decode

TAF

Not found

Destination Runways

ID Width Length Bearing (true) Bearing (mag) Surface Threshold Offset Overrun Length
01 148 ft / 45 m 8,584 ft / 2,616 m 2.31° 9.51° Asphalt 0 ft / 0 m 180 ft / 55 m
19 148 ft / 45 m 8,584 ft / 2,616 m 182.31° 189.51° Asphalt 190 ft / 58 m 0 ft / 0 m

Popular Alternatives